Terminal Aerodrome Forecast
Issued by NWS Melbourne, FL

Home | Current Version | Previous Version | Text Only | Print | Product List | Glossary On
Versions: 1 2 3 4 5 6 7 8 9 10 11 12 13
000
FTUS42 KMLB 032333
TAFVRB
TAF
KVRB 032333Z 0400/0424 12006KT P6SM FEW040 SCT120 SCT250
     FM040200 VRB02KT P6SM SCT250
     FM041300 30005KT P6SM SCT030 SCT250
     FM041800 05005KT P6SM VCTS SCT035CB SCT070=

USA.gov is the U.S. government's official web portal to all federal, state and local government web resources and services.